createdAt,value
2018-07-03T00:01:39.232Z,0.80
2018-07-03T00:04:07.247Z,0.80
2018-07-03T00:06:35.268Z,0.80
2018-07-03T00:09:03.375Z,0.70
2018-07-03T00:11:31.404Z,1.07
2018-07-03T00:13:59.421Z,1.00
2018-07-03T00:16:32.884Z,1.00
2018-07-03T00:19:00.875Z,0.90
2018-07-03T00:21:28.880Z,0.80
2018-07-03T00:23:56.885Z,1.30
2018-07-03T00:26:24.868Z,0.90
2018-07-03T00:28:52.863Z,0.87
2018-07-03T00:31:20.885Z,1.00
2018-07-03T00:33:48.896Z,0.70
2018-07-03T00:36:16.941Z,1.17
2018-07-03T00:38:44.951Z,0.77
2018-07-03T00:41:13.009Z,0.70
2018-07-03T00:43:41.034Z,0.73
2018-07-03T00:46:09.087Z,0.87
2018-07-03T00:48:37.097Z,1.00
2018-07-03T00:51:05.148Z,1.00
2018-07-03T00:53:33.125Z,0.80
2018-07-03T00:56:01.129Z,0.97
2018-07-03T00:58:29.214Z,0.90
2018-07-03T01:00:57.254Z,0.73
2018-07-03T01:03:25.247Z,0.80
2018-07-03T01:05:53.281Z,1.00
2018-07-03T01:08:21.334Z,1.00
2018-07-03T01:10:49.336Z,1.07
2018-07-03T01:13:17.404Z,0.93
2018-07-03T01:15:45.426Z,1.00
2018-07-03T01:18:13.425Z,1.10
2018-07-03T01:20:41.454Z,1.03
2018-07-03T01:23:09.509Z,1.07
2018-07-03T01:25:37.500Z,0.80
2018-07-03T01:28:05.492Z,1.50
2018-07-03T01:30:33.516Z,0.90
2018-07-03T01:33:01.567Z,0.87
2018-07-03T01:35:29.564Z,1.23
2018-07-03T01:37:57.573Z,1.10
2018-07-03T01:40:25.577Z,1.00
2018-07-03T01:42:53.693Z,1.33
2018-07-03T01:45:21.709Z,1.07
2018-07-03T01:47:49.864Z,1.20
2018-07-03T01:50:17.866Z,1.20
2018-07-03T01:52:46.304Z,1.10
2018-07-03T01:55:14.287Z,1.00
2018-07-03T01:57:42.366Z,1.17
2018-07-03T02:00:10.386Z,1.10
2018-07-03T02:02:38.474Z,0.90
2018-07-03T02:05:06.483Z,0.97
2018-07-03T02:07:34.552Z,0.80
2018-07-03T02:10:02.561Z,1.00
2018-07-03T02:12:30.564Z,1.00
2018-07-03T02:14:59.107Z,1.07
2018-07-03T02:17:27.144Z,1.07
2018-07-03T02:19:55.161Z,1.37
2018-07-03T02:22:23.221Z,0.90
2018-07-03T02:24:51.247Z,1.03
2018-07-03T02:27:19.233Z,1.10
2018-07-03T02:29:47.230Z,0.90
2018-07-03T02:32:15.228Z,0.87
2018-07-03T02:34:43.285Z,1.33
2018-07-03T02:37:11.553Z,1.10
2018-07-03T02:39:39.630Z,0.90
2018-07-03T02:42:07.622Z,1.20
2018-07-03T02:44:35.652Z,1.00
2018-07-03T02:47:03.677Z,1.00
2018-07-03T02:49:31.680Z,1.03
2018-07-03T02:51:59.718Z,1.10
2018-07-03T02:54:27.719Z,0.93
2018-07-03T02:56:55.731Z,1.10
2018-07-03T02:59:23.721Z,1.17
2018-07-03T03:01:51.763Z,0.90
2018-07-03T03:04:19.758Z,1.00
2018-07-03T03:06:47.781Z,1.13
2018-07-03T03:09:15.800Z,1.07
2018-07-03T03:11:43.872Z,0.90
2018-07-03T03:14:11.892Z,1.30
2018-07-03T03:16:39.916Z,0.90
2018-07-03T03:19:07.912Z,1.30
2018-07-03T03:21:35.900Z,1.30
2018-07-03T03:24:03.921Z,1.07
2018-07-03T03:26:32.685Z,1.03
2018-07-03T03:29:00.697Z,1.30
2018-07-03T03:31:28.765Z,1.00
2018-07-03T03:33:56.799Z,0.93
2018-07-03T03:36:24.788Z,0.90
2018-07-03T03:38:52.775Z,1.10
2018-07-03T03:41:20.761Z,1.00
2018-07-03T03:43:48.769Z,1.10
2018-07-03T03:46:16.753Z,1.20
2018-07-03T03:48:44.772Z,1.30
2018-07-03T03:51:12.774Z,1.20
2018-07-03T03:53:40.856Z,1.53
2018-07-03T03:56:08.808Z,1.30
2018-07-03T03:58:36.820Z,1.10
2018-07-03T04:01:04.841Z,1.33
2018-07-03T04:03:32.865Z,1.60
2018-07-03T04:06:00.889Z,1.20
2018-07-03T04:08:28.870Z,1.50
2018-07-03T04:10:57.077Z,1.30
2018-07-03T04:13:25.092Z,1.63
2018-07-03T04:15:53.107Z,1.20
2018-07-03T04:18:29.812Z,1.30
2018-07-03T04:20:57.976Z,1.10
2018-07-03T04:23:26.009Z,1.20
2018-07-03T04:25:54.237Z,1.70
2018-07-03T04:28:22.256Z,1.37
2018-07-03T04:30:50.281Z,1.60
2018-07-03T04:33:18.272Z,1.87
2018-07-03T04:35:46.346Z,2.00
2018-07-03T04:38:14.500Z,1.60
2018-07-03T04:40:42.499Z,1.93
2018-07-03T04:43:10.664Z,1.70
2018-07-03T04:45:38.728Z,1.90
2018-07-03T04:48:06.781Z,1.70
2018-07-03T04:50:34.844Z,2.00
2018-07-03T04:53:02.846Z,1.93
2018-07-03T04:55:30.854Z,1.80
2018-07-03T04:57:59.189Z,1.70
2018-07-03T05:00:27.275Z,2.10
2018-07-03T05:02:55.348Z,2.60
2018-07-03T05:05:23.374Z,2.53
2018-07-03T05:07:51.396Z,2.33
2018-07-03T05:10:19.444Z,1.83
2018-07-03T05:12:47.422Z,1.93
2018-07-03T05:15:15.673Z,2.20
2018-07-03T05:17:43.704Z,2.07
2018-07-03T05:20:11.740Z,2.27
2018-07-03T05:22:40.391Z,2.20
2018-07-03T05:25:08.421Z,1.57
2018-07-03T05:27:36.455Z,1.70
2018-07-03T05:30:05.236Z,1.23
2018-07-03T05:32:33.268Z,1.43
2018-07-03T05:35:01.277Z,1.90
2018-07-03T05:37:29.269Z,1.90
2018-07-03T05:39:57.341Z,1.73
2018-07-03T05:42:25.350Z,1.70
2018-07-03T05:44:53.345Z,1.40
2018-07-03T05:47:21.392Z,1.67
2018-07-03T05:49:49.417Z,1.50
2018-07-03T05:52:18.467Z,1.90
2018-07-03T05:54:46.464Z,1.43
2018-07-03T05:57:14.491Z,1.63
2018-07-03T05:59:42.508Z,1.30
2018-07-03T06:02:11.516Z,1.20
2018-07-03T06:04:39.538Z,1.43
2018-07-03T06:07:07.545Z,1.52
2018-07-03T06:09:35.564Z,1.70
2018-07-03T06:12:03.550Z,1.32
2018-07-03T06:14:31.568Z,1.55
2018-07-03T06:16:59.666Z,1.90
2018-07-03T06:19:27.676Z,1.75
2018-07-03T06:21:56.592Z,1.40
2018-07-03T06:24:24.892Z,2.33
2018-07-03T06:26:52.889Z,2.60
2018-07-03T06:29:20.913Z,1.60
2018-07-03T06:31:49.101Z,1.47
2018-07-03T06:34:17.104Z,1.25
2018-07-03T06:36:45.141Z,1.50
2018-07-03T06:39:14.223Z,1.22
2018-07-03T06:41:42.302Z,1.00
2018-07-03T06:44:10.868Z,1.30
2018-07-03T06:46:38.901Z,1.45
2018-07-03T06:49:06.914Z,1.10
2018-07-03T06:51:34.954Z,1.00
2018-07-03T06:54:03.032Z,1.35
2018-07-03T06:56:31.094Z,1.55
2018-07-03T06:58:59.523Z,1.30
2018-07-03T07:01:28.340Z,1.17
2018-07-03T07:03:57.349Z,1.10
2018-07-03T07:06:25.351Z,0.90
2018-07-03T07:08:53.488Z,1.07
2018-07-03T07:11:21.428Z,1.12
2018-07-03T07:13:49.453Z,1.30
2018-07-03T07:16:17.444Z,1.40
2018-07-03T07:18:45.446Z,1.10
2018-07-03T07:21:13.453Z,1.37
2018-07-03T07:23:41.497Z,1.15
2018-07-03T07:26:09.543Z,0.90
2018-07-03T07:28:38.409Z,1.00
2018-07-03T07:31:06.494Z,0.90
2018-07-03T07:33:34.496Z,0.80
2018-07-03T07:36:02.519Z,1.07
2018-07-03T07:38:30.480Z,1.37
2018-07-03T07:40:58.494Z,1.00
2018-07-03T07:43:26.510Z,0.82
2018-07-03T07:45:54.517Z,1.00
2018-07-03T07:48:22.524Z,1.30
2018-07-03T07:50:50.539Z,1.20
2018-07-03T07:53:18.560Z,0.87
2018-07-03T07:55:46.535Z,0.90
2018-07-03T07:58:14.566Z,1.07
2018-07-03T08:00:42.565Z,1.00
2018-07-03T08:03:10.576Z,1.00
2018-07-03T08:05:38.590Z,0.90
2018-07-03T08:08:06.689Z,0.97
2018-07-03T08:10:34.710Z,0.90
2018-07-03T08:13:02.728Z,1.23
2018-07-03T08:15:30.757Z,0.90
2018-07-03T08:17:58.732Z,1.00
2018-07-03T08:20:26.740Z,1.00
2018-07-03T08:22:55.060Z,0.90
2018-07-03T08:25:23.342Z,0.80
2018-07-03T08:27:51.357Z,0.93
2018-07-03T08:30:19.337Z,0.85
2018-07-03T08:32:47.316Z,1.30
2018-07-03T08:35:15.985Z,0.70
2018-07-03T08:37:43.966Z,1.00
2018-07-03T08:40:11.941Z,0.90
2018-07-03T08:42:39.961Z,1.03
2018-07-03T08:45:08.359Z,0.93
2018-07-03T08:47:36.376Z,0.90
2018-07-03T08:50:04.505Z,1.10
2018-07-03T08:52:32.509Z,1.03
2018-07-03T08:55:00.556Z,0.80
2018-07-03T08:57:28.548Z,1.00
2018-07-03T08:59:56.600Z,0.90
2018-07-03T09:02:24.623Z,0.90
2018-07-03T09:04:52.883Z,0.70
2018-07-03T09:07:20.906Z,0.70
2018-07-03T09:09:48.907Z,1.00
2018-07-03T09:12:16.932Z,0.80
2018-07-03T09:14:45.132Z,1.83
2018-07-03T09:17:18.577Z,0.80
2018-07-03T09:19:46.580Z,0.90
2018-07-03T09:22:14.616Z,0.80
2018-07-03T09:24:42.852Z,0.90
2018-07-03T09:27:10.889Z,1.00
2018-07-03T09:29:38.876Z,0.90
2018-07-03T09:32:06.922Z,1.00
2018-07-03T09:34:34.948Z,1.20
2018-07-03T09:37:03.400Z,0.90
2018-07-03T09:39:31.458Z,1.00
2018-07-03T09:41:59.473Z,0.77
2018-07-03T09:44:27.528Z,0.87
2018-07-03T09:46:55.554Z,1.03
2018-07-03T09:49:23.556Z,0.80
2018-07-03T09:51:51.585Z,0.90
2018-07-03T09:54:19.604Z,0.97
2018-07-03T09:56:47.606Z,1.10
2018-07-03T09:59:15.665Z,1.07
2018-07-03T10:01:43.668Z,0.70
2018-07-03T10:04:11.733Z,0.80
2018-07-03T10:06:39.788Z,1.50
2018-07-03T10:09:09.264Z,0.90
2018-07-03T10:11:37.302Z,1.13
2018-07-03T10:14:05.307Z,1.50
2018-07-03T10:16:33.371Z,1.07
2018-07-03T10:19:01.387Z,1.10
2018-07-03T10:21:29.414Z,1.10
2018-07-03T10:23:57.422Z,1.00
2018-07-03T10:26:25.497Z,0.90
2018-07-03T10:28:53.537Z,1.00
2018-07-03T10:31:21.721Z,1.33
2018-07-03T10:33:49.732Z,1.00
2018-07-03T10:36:17.746Z,1.67
2018-07-03T10:38:45.930Z,1.00
2018-07-03T10:41:14.091Z,1.03
2018-07-03T10:43:42.088Z,1.30
2018-07-03T10:46:10.444Z,1.03
2018-07-03T10:48:38.470Z,0.97
2018-07-03T10:51:06.561Z,0.97
2018-07-03T10:53:34.591Z,1.20
2018-07-03T10:56:02.598Z,1.13
2018-07-03T10:58:30.610Z,1.40
2018-07-03T11:00:58.642Z,1.23
2018-07-03T11:03:26.644Z,1.00
2018-07-03T11:05:54.705Z,1.13
2018-07-03T11:08:22.902Z,1.00
2018-07-03T11:10:50.912Z,1.10
2018-07-03T11:13:19.032Z,1.70
2018-07-03T11:15:47.081Z,0.73
2018-07-03T11:18:15.739Z,0.90
2018-07-03T11:20:43.778Z,1.10
2018-07-03T11:23:11.889Z,1.10
2018-07-03T11:25:39.913Z,0.90
2018-07-03T11:28:07.963Z,1.73
2018-07-03T11:30:35.973Z,1.00
2018-07-03T11:33:04.012Z,1.33
2018-07-03T11:35:32.000Z,0.90
2018-07-03T11:38:00.032Z,1.17
2018-07-03T11:40:28.060Z,0.83
2018-07-03T11:42:56.158Z,1.20
2018-07-03T11:45:24.105Z,0.90
2018-07-03T11:47:52.120Z,1.00
2018-07-03T11:50:20.125Z,1.20
2018-07-03T11:52:48.180Z,1.70
2018-07-03T11:55:16.205Z,1.40
2018-07-03T11:57:44.281Z,0.90
2018-07-03T12:00:12.311Z,0.90
2018-07-03T12:02:40.318Z,1.30
2018-07-03T12:05:08.361Z,0.90
2018-07-03T12:07:36.418Z,0.90
2018-07-03T12:10:05.037Z,0.90
2018-07-03T12:12:33.049Z,1.00
2018-07-03T12:15:01.054Z,1.20
2018-07-03T12:17:29.080Z,1.07
2018-07-03T12:19:57.154Z,0.80
2018-07-03T12:22:25.119Z,0.90
2018-07-03T12:24:53.125Z,1.23
2018-07-03T12:27:21.125Z,0.70
2018-07-03T12:29:49.108Z,1.27
2018-07-03T12:32:17.105Z,0.80
2018-07-03T12:34:45.156Z,1.10
2018-07-03T12:37:13.177Z,0.90
2018-07-03T12:39:41.208Z,1.47
2018-07-03T12:42:09.241Z,0.90
2018-07-03T12:44:37.264Z,1.00
2018-07-03T12:47:05.267Z,0.90
2018-07-03T12:49:33.278Z,0.80
2018-07-03T12:52:01.488Z,1.00
2018-07-03T12:54:29.765Z,1.20
2018-07-03T12:56:57.751Z,1.00
2018-07-03T12:59:25.788Z,1.10
2018-07-03T13:01:53.772Z,1.10
2018-07-03T13:04:21.760Z,0.90
2018-07-03T13:06:49.788Z,0.97
2018-07-03T13:09:17.813Z,1.03
2018-07-03T13:11:45.825Z,1.00
2018-07-03T13:14:13.861Z,1.00
2018-07-03T13:16:41.887Z,1.10
2018-07-03T13:19:09.909Z,0.90
2018-07-03T13:21:37.900Z,1.00
2018-07-03T13:24:06.236Z,1.30
2018-07-03T13:26:34.252Z,1.00
2018-07-03T13:29:02.271Z,1.10
2018-07-03T13:31:30.280Z,0.90
2018-07-03T13:33:58.277Z,0.80
2018-07-03T13:36:26.298Z,0.80
2018-07-03T13:38:54.264Z,0.80
2018-07-03T13:41:22.336Z,0.90
2018-07-03T13:43:50.485Z,1.00
2018-07-03T13:46:18.465Z,1.20
2018-07-03T13:48:46.563Z,1.00
2018-07-03T13:51:14.577Z,1.10
2018-07-03T13:53:42.575Z,0.70
2018-07-03T13:56:10.600Z,1.00
2018-07-03T13:58:38.613Z,0.90
2018-07-03T14:01:06.620Z,1.00
2018-07-03T14:03:34.715Z,1.00
2018-07-03T14:06:02.753Z,1.10
2018-07-03T14:08:30.744Z,1.37
2018-07-03T14:10:58.760Z,1.17
2018-07-03T14:13:27.081Z,0.80
2018-07-03T14:15:55.076Z,1.03
2018-07-03T14:18:25.857Z,0.80
2018-07-03T14:20:55.369Z,0.80
2018-07-03T14:23:23.369Z,0.80
2018-07-03T14:25:51.365Z,0.87
2018-07-03T14:28:19.365Z,0.80
2018-07-03T14:30:47.350Z,0.80
2018-07-03T14:33:15.333Z,1.10
2018-07-03T14:35:43.353Z,1.00
2018-07-03T14:38:11.341Z,1.27
2018-07-03T14:40:39.465Z,1.00
2018-07-03T14:43:07.497Z,0.90
2018-07-03T14:45:35.524Z,0.80
2018-07-03T14:48:03.524Z,1.00
2018-07-03T14:50:31.537Z,1.00
2018-07-03T14:52:59.512Z,0.80
2018-07-03T14:55:27.575Z,0.90
2018-07-03T14:57:55.541Z,0.90
2018-07-03T15:00:23.705Z,0.80
2018-07-03T15:02:51.858Z,0.90
2018-07-03T15:05:19.909Z,0.90
2018-07-03T15:07:47.892Z,1.00
2018-07-03T15:10:15.890Z,0.90
2018-07-03T15:12:43.873Z,0.90
2018-07-03T15:15:11.657Z,0.93
2018-07-03T15:17:39.677Z,1.37
2018-07-03T15:20:07.681Z,1.00
2018-07-03T15:22:35.683Z,1.20
2018-07-03T15:25:03.730Z,0.80
2018-07-03T15:27:31.729Z,0.90
2018-07-03T15:29:59.732Z,0.90
2018-07-03T15:32:27.705Z,1.10
2018-07-03T15:34:55.684Z,1.30
2018-07-03T15:37:23.708Z,1.20
2018-07-03T15:39:52.088Z,1.00
2018-07-03T15:42:20.074Z,0.90
2018-07-03T15:45:03.434Z,1.33
2018-07-03T15:47:31.430Z,1.10
2018-07-03T15:49:59.450Z,1.10
2018-07-03T15:52:27.471Z,1.10
2018-07-03T15:54:55.489Z,1.10
2018-07-03T15:57:23.524Z,0.90
2018-07-03T15:59:51.567Z,1.00
2018-07-03T16:02:19.576Z,1.10
2018-07-03T16:05:10.313Z,1.70
2018-07-03T16:09:48.748Z,1.10
2018-07-03T16:12:16.779Z,1.60
2018-07-03T16:14:44.777Z,1.20
2018-07-03T16:17:12.789Z,1.03
2018-07-03T16:19:46.077Z,1.10
2018-07-03T16:22:14.116Z,0.97
2018-07-03T16:24:42.149Z,1.10
2018-07-03T16:27:10.137Z,1.03
2018-07-03T16:29:38.180Z,1.23
2018-07-03T16:32:06.165Z,1.43
2018-07-03T16:34:34.177Z,1.10
2018-07-03T16:37:02.196Z,1.30
2018-07-03T16:39:30.199Z,1.50
2018-07-03T16:41:58.196Z,1.13
2018-07-03T16:44:26.191Z,1.40
2018-07-03T16:46:54.213Z,1.20
2018-07-03T16:49:22.286Z,1.17
2018-07-03T16:51:50.303Z,1.37
2018-07-03T16:54:18.377Z,1.60
2018-07-03T16:56:46.530Z,1.20
2018-07-03T16:59:14.526Z,1.20
2018-07-03T17:01:42.508Z,1.50
2018-07-03T17:04:10.523Z,1.37
2018-07-03T17:06:38.563Z,1.40
2018-07-03T17:09:09.253Z,1.73
2018-07-03T17:11:37.339Z,1.27
2018-07-03T17:14:06.899Z,1.73
2018-07-03T17:16:34.902Z,1.70
2018-07-03T17:19:41.248Z,2.17
2018-07-03T17:22:09.331Z,1.60
2018-07-03T17:24:37.332Z,2.07
2018-07-03T17:27:06.004Z,1.70
2018-07-03T17:29:34.553Z,1.90
2018-07-03T17:32:02.726Z,2.17
2018-07-03T17:34:30.793Z,1.67
2018-07-03T17:36:58.788Z,1.40
2018-07-03T17:39:38.201Z,1.50
2018-07-03T17:42:17.848Z,1.73
2018-07-03T17:45:54.756Z,1.77
2018-07-03T17:48:22.781Z,2.10
2018-07-03T17:50:50.796Z,2.43
2018-07-03T17:53:18.862Z,1.97
2018-07-03T17:55:46.837Z,1.53
2018-07-03T17:58:14.969Z,1.50
2018-07-03T18:00:42.961Z,1.63
2018-07-03T18:03:10.981Z,1.83
2018-07-03T18:05:38.973Z,1.77
2018-07-03T18:08:07.008Z,1.90
2018-07-03T18:10:35.021Z,1.10
2018-07-03T18:13:03.093Z,1.20
2018-07-03T18:15:31.128Z,2.20
2018-07-03T18:17:59.129Z,3.27
2018-07-03T18:20:27.117Z,1.40
2018-07-03T18:22:55.218Z,1.57
2018-07-03T18:25:23.236Z,1.40
2018-07-03T18:27:51.287Z,2.17
2018-07-03T18:30:19.349Z,1.67
2018-07-03T18:32:47.342Z,1.90
2018-07-03T18:35:15.382Z,1.73
2018-07-03T18:37:43.364Z,1.30
2018-07-03T18:40:11.386Z,1.43
2018-07-03T18:42:39.436Z,2.10
2018-07-03T18:45:07.512Z,1.30
2018-07-03T18:47:35.728Z,1.83
2018-07-03T18:50:04.133Z,1.50
2018-07-03T18:52:32.196Z,1.40
2018-07-03T18:55:00.197Z,1.83
2018-07-03T18:57:28.253Z,1.70
2018-07-03T18:59:56.724Z,1.40
2018-07-03T19:02:24.730Z,1.73
2018-07-03T19:04:52.763Z,1.17
2018-07-03T19:07:20.776Z,2.00
2018-07-03T19:09:48.834Z,1.70
2018-07-03T19:12:16.905Z,1.57
2018-07-03T19:14:44.976Z,1.60
2018-07-03T19:17:13.036Z,1.90
2018-07-03T19:19:41.113Z,1.80
2018-07-03T19:22:09.142Z,1.20
2018-07-03T19:24:37.163Z,1.50
2018-07-03T19:27:05.304Z,2.43
2018-07-03T19:29:33.484Z,1.50
2018-07-03T19:32:01.504Z,1.80
2018-07-03T19:34:29.524Z,1.80
2018-07-03T19:36:57.522Z,1.30
2018-07-03T19:39:25.669Z,1.90
2018-07-03T19:41:53.706Z,1.60
2018-07-03T19:44:21.689Z,1.60
2018-07-03T19:46:49.701Z,1.57
2018-07-03T19:49:17.737Z,1.90
2018-07-03T19:51:45.720Z,1.63
2018-07-03T19:54:13.789Z,1.80
2018-07-03T19:56:41.818Z,2.10
2018-07-03T19:59:09.871Z,1.83
2018-07-03T20:01:37.866Z,1.80
2018-07-03T20:04:05.966Z,1.47
2018-07-03T20:06:33.985Z,1.97
2018-07-03T20:09:01.992Z,1.97
2018-07-03T20:11:29.988Z,2.17
2018-07-03T20:13:57.964Z,2.13
2018-07-03T20:16:26.000Z,2.23
2018-07-03T20:18:54.191Z,2.20
2018-07-03T20:21:22.239Z,2.10
2018-07-03T20:23:50.241Z,2.87
2018-07-03T20:26:18.327Z,2.10
2018-07-03T20:28:46.513Z,2.43
2018-07-03T20:31:14.584Z,2.30
2018-07-03T20:33:42.648Z,2.30
2018-07-03T20:36:10.640Z,2.40
2018-07-03T20:38:38.656Z,2.60
2018-07-03T20:41:08.074Z,2.10
2018-07-03T20:43:37.481Z,2.63
2018-07-03T20:46:06.181Z,2.30
2018-07-03T20:48:34.285Z,3.10
2018-07-03T20:51:02.428Z,2.53
2018-07-03T20:53:30.484Z,2.57
2018-07-03T20:55:58.682Z,3.20
2018-07-03T20:58:26.706Z,2.90
2018-07-03T21:00:54.712Z,2.83
2018-07-03T21:03:22.807Z,2.60
2018-07-03T21:05:51.045Z,2.53
2018-07-03T21:08:18.806Z,2.97
2018-07-03T21:10:47.109Z,2.57
2018-07-03T21:13:15.096Z,3.20
2018-07-03T21:15:43.149Z,2.70
2018-07-03T21:18:11.152Z,2.90
2018-07-03T21:20:39.356Z,2.70
2018-07-03T21:23:07.352Z,2.83
2018-07-03T21:25:35.349Z,3.70
2018-07-03T21:28:03.766Z,3.40
2018-07-03T21:30:31.789Z,2.93
2018-07-03T21:32:59.804Z,3.27
2018-07-03T21:35:27.833Z,3.33
2018-07-03T21:37:55.836Z,2.93
2018-07-03T21:40:23.837Z,3.20
2018-07-03T21:42:51.881Z,3.80
2018-07-03T21:45:19.885Z,2.60
2018-07-03T21:47:47.885Z,3.90
2018-07-03T21:50:15.888Z,3.70
2018-07-03T21:52:43.905Z,4.00
2018-07-03T21:55:11.913Z,4.47
2018-07-03T21:57:39.900Z,3.83
2018-07-03T22:00:08.853Z,4.33
2018-07-03T22:02:37.021Z,3.60
2018-07-03T22:05:05.390Z,3.53
2018-07-03T22:07:33.452Z,3.63
2018-07-03T22:10:01.472Z,4.30
2018-07-03T22:12:29.462Z,4.23
2018-07-03T22:14:57.532Z,3.23
2018-07-03T22:17:25.552Z,4.23
2018-07-03T22:19:53.577Z,4.20
2018-07-03T22:22:21.605Z,3.87
2018-07-03T22:24:49.717Z,4.40
2018-07-03T22:27:17.757Z,4.10
2018-07-03T22:29:45.743Z,3.97
2018-07-03T22:32:13.768Z,4.57
2018-07-03T22:34:41.736Z,4.03
2018-07-03T22:37:09.775Z,5.33
2018-07-03T22:39:37.839Z,4.10
2018-07-03T22:42:05.808Z,4.47
2018-07-03T22:44:33.801Z,5.10
2018-07-03T22:47:01.841Z,5.00
2018-07-03T22:49:29.828Z,5.23
2018-07-03T22:51:57.842Z,5.33
2018-07-03T22:54:25.869Z,5.50
2018-07-03T22:56:53.852Z,5.70
2018-07-03T22:59:21.881Z,6.33
2018-07-03T23:01:49.886Z,4.90
2018-07-03T23:04:17.902Z,5.40
2018-07-03T23:06:46.708Z,6.07
2018-07-03T23:09:14.717Z,5.27
2018-07-03T23:11:43.805Z,5.90
2018-07-03T23:14:11.799Z,5.00
2018-07-03T23:16:39.813Z,5.50
2018-07-03T23:19:07.796Z,5.37
2018-07-03T23:21:35.804Z,5.90
2018-07-03T23:24:03.821Z,5.50
2018-07-03T23:26:31.808Z,5.40
2018-07-03T23:28:59.811Z,6.27
2018-07-03T23:31:27.830Z,5.53
2018-07-03T23:33:55.846Z,5.37
2018-07-03T23:36:23.840Z,5.67
2018-07-03T23:38:51.872Z,6.10
2018-07-03T23:41:19.892Z,5.40
2018-07-03T23:43:47.889Z,5.47
2018-07-03T23:46:27.409Z,5.23
2018-07-03T23:49:07.052Z,6.17
2018-07-03T23:51:46.577Z,6.00
2018-07-03T23:54:26.107Z,5.90
2018-07-03T23:57:05.687Z,5.37
2018-07-03T23:59:45.320Z,6.63
